createdAt,value
2023-01-11T00:00:45.299Z,99209.67
2023-01-11T00:03:12.175Z,99205.44
2023-01-11T00:05:40.350Z,99208.41
2023-01-11T00:08:07.559Z,99208.80
2023-01-11T00:10:34.517Z,99211.98
2023-01-11T00:13:01.659Z,99217.92
2023-01-11T00:15:28.552Z,99221.80
2023-01-11T00:17:55.357Z,99229.14
2023-01-11T00:20:22.120Z,99235.98
2023-01-11T00:22:49.008Z,99237.45
2023-01-11T00:25:16.005Z,99234.16
2023-01-11T00:27:42.773Z,99233.32
2023-01-11T00:30:10.345Z,99232.58
2023-01-11T00:32:37.248Z,99235.38
2023-01-11T00:35:04.507Z,99237.52
2023-01-11T00:37:31.374Z,99247.46
2023-01-11T00:39:58.189Z,99253.48
2023-01-11T00:42:43.819Z,99260.02
2023-01-11T00:45:29.483Z,99264.48
2023-01-11T00:48:01.131Z,99270.43
2023-01-11T00:50:30.440Z,99274.78
2023-01-11T00:52:58.220Z,99280.16
2023-01-11T00:55:25.635Z,99286.38
2023-01-11T00:57:52.663Z,99290.85
2023-01-11T01:00:20.432Z,99288.05
2023-01-11T01:02:47.555Z,99292.76
2023-01-11T01:05:14.462Z,99288.39
2023-01-11T01:07:41.332Z,99293.34
2023-01-11T01:10:08.929Z,99299.52
2023-01-11T01:12:54.427Z,99298.39
2023-01-11T01:15:21.306Z,99293.98
2023-01-11T01:17:48.185Z,99288.88
2023-01-11T01:20:15.301Z,99287.31
2023-01-11T01:22:42.260Z,99289.86
2023-01-11T01:25:09.555Z,99294.16
2023-01-11T01:27:36.343Z,99303.02
2023-01-11T01:30:04.786Z,99306.02
2023-01-11T01:32:31.625Z,99308.20
2023-01-11T01:34:58.419Z,99311.95
2023-01-11T01:37:25.250Z,99314.59
2023-01-11T01:39:52.097Z,99308.27
2023-01-11T01:42:20.015Z,99304.52
2023-01-11T01:45:23.357Z,99308.37
2023-01-11T01:47:58.218Z,99306.83
2023-01-11T01:50:38.556Z,99308.27
2023-01-11T01:53:10.627Z,99306.98
2023-01-11T01:55:40.387Z,99310.00
2023-01-11T01:58:10.254Z,99309.73
2023-01-11T02:00:40.984Z,99310.01
2023-01-11T02:03:08.476Z,99305.61
2023-01-11T02:05:35.266Z,99303.13
2023-01-11T02:08:02.096Z,99301.66
2023-01-11T02:10:29.208Z,99299.11
2023-01-11T02:12:58.740Z,99296.45
2023-01-11T02:15:25.676Z,99298.36
2023-01-11T02:17:52.501Z,99299.06
2023-01-11T02:20:28.454Z,99303.33
2023-01-11T02:23:07.520Z,99300.05
2023-01-11T02:26:02.630Z,99298.35
2023-01-11T02:29:09.228Z,99297.00
2023-01-11T02:32:07.321Z,99292.38
2023-01-11T02:35:09.854Z,99289.13
2023-01-11T02:37:55.610Z,99290.94
2023-01-11T02:40:30.345Z,99293.05
2023-01-11T02:43:24.765Z,99293.35
2023-01-11T02:45:59.433Z,99291.84
2023-01-11T02:48:47.612Z,99288.23
2023-01-11T02:51:20.471Z,99293.54
2023-01-11T02:53:54.105Z,99300.00
2023-01-11T02:56:31.280Z,99303.64
2023-01-11T02:58:58.558Z,99302.31
2023-01-11T03:01:25.788Z,99304.07
2023-01-11T03:03:52.947Z,99300.65
2023-01-11T03:07:13.093Z,99296.33
2023-01-11T03:09:58.193Z,99296.20
2023-01-11T03:12:55.032Z,99296.59
2023-01-11T03:15:50.385Z,99300.48
2023-01-11T03:18:36.134Z,99296.61
2023-01-11T03:21:21.639Z,99292.09
2023-01-11T03:24:07.539Z,99286.05
2023-01-11T03:27:06.593Z,99288.52
2023-01-11T03:29:47.237Z,99292.02
2023-01-11T03:32:33.843Z,99296.35
2023-01-11T03:35:06.830Z,99296.56
2023-01-11T03:37:51.454Z,99299.85
2023-01-11T03:40:21.954Z,99305.52
2023-01-11T03:43:09.178Z,99308.41
2023-01-11T03:45:37.526Z,99312.02
2023-01-11T03:48:04.927Z,99315.92
2023-01-11T03:50:31.728Z,99314.27
2023-01-11T03:52:58.588Z,99318.94
2023-01-11T03:55:26.795Z,99318.65
2023-01-11T03:57:53.540Z,99319.75
2023-01-11T04:00:21.426Z,99319.73
2023-01-11T04:02:48.757Z,99325.07
2023-01-11T04:05:15.562Z,99327.34
2023-01-11T04:07:42.371Z,99332.54
2023-01-11T04:10:10.197Z,99340.29
2023-01-11T04:12:37.083Z,99342.20
2023-01-11T04:15:05.405Z,99340.13
2023-01-11T04:17:32.417Z,99341.97
2023-01-11T04:19:59.217Z,99338.27
2023-01-11T04:22:26.077Z,99339.92
2023-01-11T04:24:52.885Z,99339.06
2023-01-11T04:27:19.720Z,99342.92
2023-01-11T04:29:46.553Z,99341.52
2023-01-11T04:32:13.389Z,99343.86
2023-01-11T04:34:40.167Z,99342.11
2023-01-11T04:37:07.020Z,99343.77
2023-01-11T04:39:33.827Z,99343.35
2023-01-11T04:42:19.305Z,99344.10
2023-01-11T04:44:48.800Z,99348.05
2023-01-11T04:47:16.408Z,99348.28
2023-01-11T04:49:43.272Z,99343.73
2023-01-11T04:52:11.098Z,99346.89
2023-01-11T04:54:38.549Z,99344.80
2023-01-11T04:57:05.768Z,99347.02
2023-01-11T04:59:32.746Z,99347.45
2023-01-11T05:01:59.710Z,99349.20
2023-01-11T05:04:26.632Z,99353.77
2023-01-11T05:06:53.526Z,99362.35
2023-01-11T05:09:20.424Z,99360.23
2023-01-11T05:11:47.315Z,99366.23
2023-01-11T05:14:15.275Z,99378.61
2023-01-11T05:16:42.256Z,99386.70
2023-01-11T05:19:10.312Z,99388.66
2023-01-11T05:21:39.399Z,99388.67
2023-01-11T05:24:09.170Z,99391.92
2023-01-11T05:26:37.877Z,99395.45
2023-01-11T05:29:06.639Z,99390.54
2023-01-11T05:31:34.091Z,99390.56
2023-01-11T05:34:01.068Z,99383.77
2023-01-11T05:36:28.334Z,99383.42
2023-01-11T05:38:56.339Z,99379.16
2023-01-11T05:41:24.453Z,99378.73
2023-01-11T05:44:10.660Z,99378.30
2023-01-11T05:46:38.256Z,99378.71
2023-01-11T05:49:05.346Z,99383.68
2023-01-11T05:51:32.800Z,99389.48
2023-01-11T05:54:00.073Z,99389.67
2023-01-11T05:56:27.021Z,99393.20
2023-01-11T05:58:53.805Z,99398.11
2023-01-11T06:01:21.307Z,99402.39
2023-01-11T06:03:48.114Z,99405.46
2023-01-11T06:06:15.192Z,99410.05
2023-01-11T06:08:42.159Z,99408.31
2023-01-11T06:11:08.980Z,99411.13
2023-01-11T06:13:35.930Z,99408.21
2023-01-11T06:16:07.072Z,99410.05
2023-01-11T06:18:38.890Z,99416.27
2023-01-11T06:21:06.107Z,99418.14
2023-01-11T06:23:34.104Z,99414.10
2023-01-11T11:10:45.532Z,99345.64
2023-01-11T11:13:42.537Z,99345.05
2023-01-11T11:16:24.743Z,99337.90
2023-01-11T11:18:52.094Z,99340.29
2023-01-11T11:21:29.573Z,99342.46
2023-01-11T11:24:05.922Z,99339.93
2023-01-11T11:26:37.609Z,99341.02
2023-01-11T11:29:06.856Z,99342.88
2023-01-11T11:31:35.525Z,99336.23
2023-01-11T11:34:13.815Z,99335.69
2023-01-11T11:36:44.660Z,99323.27
2023-01-11T11:39:29.165Z,99318.11
2023-01-11T11:42:07.373Z,99317.70
2023-01-11T11:44:34.362Z,99318.91
2023-01-11T11:47:06.201Z,99311.46
2023-01-11T11:49:34.361Z,99309.52
2023-01-11T11:52:01.845Z,99303.66
2023-01-11T11:54:53.487Z,99306.48
2023-01-11T11:57:28.857Z,99306.71
2023-01-11T12:00:07.261Z,99310.32
2023-01-11T12:02:35.163Z,99319.50
2023-01-11T12:05:06.669Z,99328.77
2023-01-11T12:07:49.689Z,99332.80
2023-01-11T12:10:23.771Z,99333.36
2023-01-11T12:12:57.466Z,99327.80
2023-01-11T12:15:25.794Z,99332.30
2023-01-11T12:17:52.799Z,99334.08
2023-01-11T12:20:22.782Z,99331.66
2023-01-11T12:22:50.219Z,99334.06
2023-01-11T12:25:21.737Z,99333.98
2023-01-11T12:27:57.753Z,99335.13
2023-01-11T12:30:49.265Z,99335.78
2023-01-11T12:33:38.361Z,99337.52
2023-01-11T12:36:27.034Z,99339.24
2023-01-11T12:39:13.885Z,99335.54
2023-01-11T12:41:50.386Z,99334.27
2023-01-11T12:44:42.404Z,99326.98
2023-01-11T12:47:47.600Z,99327.58
2023-01-11T12:50:20.544Z,99333.83
2023-01-11T12:53:09.749Z,99332.89
2023-01-11T12:56:04.852Z,99333.08
2023-01-11T12:58:40.600Z,99325.35
2023-01-11T13:01:34.525Z,99321.13
2023-01-11T13:04:07.655Z,99316.78
2023-01-11T13:06:59.536Z,99320.58
2023-01-11T13:09:32.502Z,99314.73
2023-01-11T13:12:05.464Z,99318.04
2023-01-11T13:14:41.412Z,99314.20
2023-01-11T13:17:34.433Z,99317.19
2023-01-11T13:20:48.648Z,99319.77
2023-01-11T13:23:39.401Z,99328.27
2023-01-11T13:26:35.474Z,99325.03
2023-01-11T13:29:17.751Z,99317.79
2023-01-11T13:31:45.208Z,99315.06
2023-01-11T13:34:47.265Z,99302.52
2023-01-11T13:37:18.246Z,99294.38
2023-01-11T13:39:51.994Z,99286.46
2023-01-11T13:42:24.642Z,99287.23
2023-01-11T13:45:01.877Z,99296.45
2023-01-11T13:47:35.639Z,99299.38
2023-01-11T13:50:39.061Z,99303.00
2023-01-11T13:53:15.980Z,99311.57
2023-01-11T13:56:08.625Z,99320.08
2023-01-11T13:58:53.664Z,99318.61
2023-01-11T14:01:43.726Z,99320.68
2023-01-11T14:04:43.504Z,99323.60
2023-01-11T14:07:39.675Z,99331.67
2023-01-11T14:10:17.757Z,99326.30
2023-01-11T14:13:06.232Z,99324.39
2023-01-11T14:15:47.150Z,99317.89
2023-01-11T14:18:19.525Z,99303.27
2023-01-11T14:20:55.764Z,99302.59
2023-01-11T14:23:33.069Z,99307.97
2023-01-11T14:26:26.900Z,99313.15
2023-01-11T14:29:01.039Z,99320.70
2023-01-11T14:31:43.661Z,99317.41
2023-01-11T14:37:30.298Z,99311.72
2023-01-11T14:40:21.856Z,99313.59
2023-01-11T14:42:57.935Z,99320.46
2023-01-11T14:45:40.101Z,99329.84
2023-01-11T14:48:15.784Z,99325.92
2023-01-11T14:50:50.959Z,99323.20
2023-01-11T14:53:21.402Z,99322.61
2023-01-11T14:55:49.340Z,99330.21
2023-01-11T14:58:32.337Z,99339.45
2023-01-11T15:00:59.171Z,99338.55
2023-01-11T15:03:41.429Z,99339.53
2023-01-11T15:06:08.384Z,99341.49
2023-01-11T15:08:43.713Z,99341.63
2023-01-11T15:11:24.455Z,99338.23
2023-01-11T15:13:57.451Z,99327.66
2023-01-11T15:16:47.219Z,99315.48
2023-01-11T15:19:25.357Z,99316.45
2023-01-11T15:21:53.500Z,99309.81
2023-01-11T15:24:27.515Z,99313.41
2023-01-11T15:26:55.027Z,99321.83
2023-01-11T15:29:37.760Z,99320.34
2023-01-11T15:32:19.552Z,99312.48
2023-01-11T15:34:47.574Z,99321.90
2023-01-11T15:37:42.318Z,99316.77
2023-01-11T15:40:19.554Z,99316.31
2023-01-11T15:43:14.309Z,99314.83
2023-01-11T15:46:54.132Z,99309.67
2023-01-11T15:49:23.945Z,99297.90
2023-01-11T15:52:42.036Z,99296.80
2023-01-11T15:55:27.708Z,99306.31
2023-01-11T15:58:06.727Z,99308.05
2023-01-11T16:00:55.600Z,99301.21
2023-01-11T16:03:28.392Z,99295.55
2023-01-11T16:06:17.966Z,99305.61
2023-01-11T16:09:12.755Z,99302.14
2023-01-11T16:11:42.235Z,99306.21
2023-01-11T16:14:27.911Z,99311.33
2023-01-11T16:16:55.943Z,99302.84
2023-01-11T16:19:24.528Z,99294.13
2023-01-11T16:21:52.705Z,99294.73
2023-01-11T16:24:21.273Z,99297.77
2023-01-11T16:26:53.908Z,99299.42
2023-01-11T16:29:23.562Z,99296.52
2023-01-11T16:32:14.825Z,99294.55
2023-01-11T16:34:43.281Z,99291.46
2023-01-11T16:37:20.896Z,99280.09
2023-01-11T16:39:49.382Z,99281.02
2023-01-11T16:42:16.203Z,99283.79
2023-01-11T16:44:55.932Z,99273.10
2023-01-11T16:47:22.764Z,99266.46
2023-01-11T16:50:09.628Z,99275.04
2023-01-11T16:52:38.930Z,99265.33
2023-01-11T16:55:15.550Z,99261.70
2023-01-11T16:57:44.367Z,99260.37
2023-01-11T17:00:32.579Z,99258.30
2023-01-11T17:03:18.088Z,99258.35
2023-01-11T17:05:58.611Z,99248.17
2023-01-11T17:08:34.919Z,99247.83
2023-01-11T17:11:26.667Z,99248.48
2023-01-11T17:14:25.997Z,99249.00
2023-01-11T17:16:54.907Z,99251.50
2023-01-11T17:19:24.478Z,99239.32
2023-01-11T17:22:00.101Z,99239.55
2023-01-11T17:24:27.313Z,99235.42
2023-01-11T17:26:56.740Z,99236.08
2023-01-11T17:29:29.478Z,99244.29
2023-01-11T17:31:56.549Z,99246.99
2023-01-11T17:34:28.236Z,99243.24
2023-01-11T17:36:55.626Z,99238.98
2023-01-11T17:39:33.635Z,99238.84
2023-01-11T17:42:29.925Z,99242.74
2023-01-11T17:45:15.080Z,99243.16
2023-01-11T17:47:52.909Z,99247.58
2023-01-11T17:50:45.728Z,99249.52
2023-01-11T17:53:12.552Z,99249.01
2023-01-11T17:55:58.608Z,99245.05
2023-01-11T17:58:26.522Z,99238.34
2023-01-11T18:01:08.890Z,99242.81
2023-01-11T18:04:03.345Z,99249.20
2023-01-11T18:06:40.175Z,99250.78
2023-01-11T18:09:29.413Z,99245.21
2023-01-11T18:12:16.353Z,99242.93
2023-01-11T18:14:51.237Z,99241.70
2023-01-11T18:17:35.386Z,99250.42
2023-01-11T18:20:22.477Z,99244.06
2023-01-11T18:23:05.269Z,99238.42
2023-01-11T18:25:35.058Z,99231.42
2023-01-11T18:28:11.328Z,99234.04
2023-01-11T18:30:40.062Z,99243.64
2023-01-11T18:33:20.242Z,99244.34
2023-01-11T18:35:48.955Z,99245.13
2023-01-11T18:38:24.560Z,99248.97
2023-01-11T18:40:52.397Z,99241.14
2023-01-11T18:43:24.895Z,99243.65
2023-01-11T18:45:52.037Z,99242.64
2023-01-11T18:48:19.049Z,99251.67
2023-01-11T18:50:46.108Z,99251.17
2023-01-11T18:53:13.177Z,99256.84
2023-01-11T18:55:40.326Z,99262.80
2023-01-11T18:58:07.325Z,99263.76
2023-01-11T19:00:35.028Z,99257.63
2023-01-11T21:16:08.032Z,99215.52
2023-01-11T21:18:35.705Z,99202.71
2023-01-11T21:21:02.520Z,99195.40
2023-01-11T21:23:29.274Z,99191.27
2023-01-11T21:25:57.055Z,99192.09
2023-01-11T21:28:24.015Z,99192.31
2023-01-11T21:30:50.745Z,99190.70
2023-01-11T21:33:17.495Z,99192.55
2023-01-11T21:35:44.139Z,99198.84
2023-01-11T21:38:10.912Z,99197.40
2023-01-11T21:40:37.570Z,99203.48
2023-01-11T21:43:04.588Z,99208.17
2023-01-11T21:45:31.413Z,99209.53
2023-01-11T21:47:58.068Z,99210.73
2023-01-11T21:50:25.442Z,99211.42
2023-01-11T21:52:54.383Z,99215.63
2023-01-11T21:55:21.040Z,99218.07
2023-01-11T21:57:48.287Z,99222.84
2023-01-11T22:00:16.603Z,99219.28
2023-01-11T22:02:43.238Z,99228.24
2023-01-11T22:05:09.930Z,99227.38
2023-01-11T22:07:39.813Z,99234.79
2023-01-11T22:10:07.122Z,99244.95
2023-01-11T22:12:34.310Z,99239.33
2023-01-11T22:15:01.001Z,99247.31
2023-01-11T22:17:27.846Z,99238.06
2023-01-11T22:19:54.560Z,99236.13
2023-01-11T22:22:21.592Z,99225.95
2023-01-11T22:24:48.280Z,99220.61
2023-01-11T22:27:14.929Z,99205.93
2023-01-11T22:29:43.821Z,99206.83
2023-01-11T22:32:10.463Z,99210.25
2023-01-11T22:34:38.771Z,99219.53
2023-01-11T22:37:08.702Z,99207.52
2023-01-11T22:39:39.956Z,99193.54
2023-01-11T22:42:06.953Z,99178.52
2023-01-11T22:44:33.795Z,99188.98
2023-01-11T22:47:00.810Z,99203.78
2023-01-11T22:49:27.451Z,99206.94
2023-01-11T22:51:54.838Z,99215.84
2023-01-11T22:54:22.431Z,99220.14
2023-01-11T22:56:49.165Z,99228.46
2023-01-11T22:59:15.760Z,99237.60
2023-01-11T23:01:42.733Z,99232.41
2023-01-11T23:04:11.584Z,99226.58
2023-01-11T23:06:39.330Z,99226.61
2023-01-11T23:09:07.974Z,99223.60
2023-01-11T23:11:57.359Z,99217.57
2023-01-11T23:14:32.498Z,99210.73
2023-01-11T23:17:05.483Z,99203.66
2023-01-11T23:19:34.193Z,99203.98
2023-01-11T23:22:00.924Z,99194.89
2023-01-11T23:24:27.706Z,99193.05
2023-01-11T23:26:54.953Z,99192.25
2023-01-11T23:29:21.830Z,99188.59
2023-01-11T23:31:48.549Z,99192.91
2023-01-11T23:34:15.310Z,99187.20
2023-01-11T23:36:42.300Z,99188.14
2023-01-11T23:39:14.541Z,99183.20
2023-01-11T23:42:02.975Z,99175.52
2023-01-11T23:44:29.689Z,99160.67
2023-01-11T23:47:14.865Z,99163.55
2023-01-11T23:49:43.205Z,99168.21
2023-01-11T23:52:10.629Z,99171.68
2023-01-11T23:54:37.342Z,99174.69
2023-01-11T23:57:04.111Z,99173.16
2023-01-11T23:59:32.031Z,99170.77
